sensor_id;sensor_type;location;lat;lon;timestamp;temperature;humidity
43015;DHT22;28637;50.554;7.032;2023-01-04T00:00:03;7.90;99.90
43015;DHT22;28637;50.554;7.032;2023-01-04T00:05:04;7.90;99.90
43015;DHT22;28637;50.554;7.032;2023-01-04T00:10:05;8.00;99.90
43015;DHT22;28637;50.554;7.032;2023-01-04T00:15:06;8.00;99.90
43015;DHT22;28637;50.554;7.032;2023-01-04T00:20:07;8.00;99.90
43015;DHT22;28637;50.554;7.032;2023-01-04T00:25:08;8.10;99.90
43015;DHT22;28637;50.554;7.032;2023-01-04T00:30:09;8.10;99.90
43015;DHT22;28637;50.554;7.032;2023-01-04T00:35:11;8.10;99.90
43015;DHT22;28637;50.554;7.032;2023-01-04T00:40:12;8.00;99.90
43015;DHT22;28637;50.554;7.032;2023-01-04T00:45:12;8.10;99.90
43015;DHT22;28637;50.554;7.032;2023-01-04T00:50:15;8.10;99.90
43015;DHT22;28637;50.554;7.032;2023-01-04T00:55:15;8.20;99.90
43015;DHT22;28637;50.554;7.032;2023-01-04T01:00:16;8.20;99.90
43015;DHT22;28637;50.554;7.032;2023-01-04T01:05:17;8.20;99.90
43015;DHT22;28637;50.554;7.032;2023-01-04T01:10:17;8.20;99.90
43015;DHT22;28637;50.554;7.032;2023-01-04T01:15:18;8.20;99.90
43015;DHT22;28637;50.554;7.032;2023-01-04T01:20:19;8.20;99.90
43015;DHT22;28637;50.554;7.032;2023-01-04T01:25:19;8.30;99.90
43015;DHT22;28637;50.554;7.032;2023-01-04T01:30:20;8.30;99.90
43015;DHT22;28637;50.554;7.032;2023-01-04T01:35:20;8.30;99.90
43015;DHT22;28637;50.554;7.032;2023-01-04T01:40:21;8.30;99.90
43015;DHT22;28637;50.554;7.032;2023-01-04T01:45:31;8.30;99.90
43015;DHT22;28637;50.554;7.032;2023-01-04T01:50:37;8.30;99.90
43015;DHT22;28637;50.554;7.032;2023-01-04T01:55:39;8.40;99.90
43015;DHT22;28637;50.554;7.032;2023-01-04T02:00:41;8.40;99.90
43015;DHT22;28637;50.554;7.032;2023-01-04T02:05:43;8.40;99.90
43015;DHT22;28637;50.554;7.032;2023-01-04T02:10:44;8.40;99.90
43015;DHT22;28637;50.554;7.032;2023-01-04T02:16:07;8.50;99.90
43015;DHT22;28637;50.554;7.032;2023-01-04T02:21:22;8.40;99.90
43015;DHT22;28637;50.554;7.032;2023-01-04T02:26:51;8.40;99.90
43015;DHT22;28637;50.554;7.032;2023-01-04T02:31:56;8.50;99.90
43015;DHT22;28637;50.554;7.032;2023-01-04T02:47:15;8.40;99.90
43015;DHT22;28637;50.554;7.032;2023-01-04T02:52:17;8.50;99.90
43015;DHT22;28637;50.554;7.032;2023-01-04T02:57:40;8.40;99.90
43015;DHT22;28637;50.554;7.032;2023-01-04T03:08:35;8.40;99.90
43015;DHT22;28637;50.554;7.032;2023-01-04T03:13:40;8.30;99.90
43015;DHT22;28637;50.554;7.032;2023-01-04T03:18:48;8.30;99.90
43015;DHT22;28637;50.554;7.032;2023-01-04T03:23:52;8.30;99.90
43015;DHT22;28637;50.554;7.032;2023-01-04T03:29:17;8.30;99.90
43015;DHT22;28637;50.554;7.032;2023-01-04T03:34:40;8.20;99.90
43015;DHT22;28637;50.554;7.032;2023-01-04T03:45:44;8.20;99.90
43015;DHT22;28637;50.554;7.032;2023-01-04T03:51:12;8.10;99.90
43015;DHT22;28637;50.554;7.032;2023-01-04T03:56:17;8.10;99.90
43015;DHT22;28637;50.554;7.032;2023-01-04T04:01:20;8.10;99.90
43015;DHT22;28637;50.554;7.032;2023-01-04T04:06:21;8.00;99.90
43015;DHT22;28637;50.554;7.032;2023-01-04T04:11:40;8.00;99.90
43015;DHT22;28637;50.554;7.032;2023-01-04T04:16:41;8.00;99.90
43015;DHT22;28637;50.554;7.032;2023-01-04T04:21:41;8.00;99.90
43015;DHT22;28637;50.554;7.032;2023-01-04T04:26:42;8.10;99.90
43015;DHT22;28637;50.554;7.032;2023-01-04T04:31:43;8.10;99.90
43015;DHT22;28637;50.554;7.032;2023-01-04T04:36:43;8.20;99.90
43015;DHT22;28637;50.554;7.032;2023-01-04T04:41:44;8.20;99.90
43015;DHT22;28637;50.554;7.032;2023-01-04T04:46:46;8.10;99.90
43015;DHT22;28637;50.554;7.032;2023-01-04T04:51:47;8.10;99.90
43015;DHT22;28637;50.554;7.032;2023-01-04T04:56:49;8.10;99.90
43015;DHT22;28637;50.554;7.032;2023-01-04T05:01:49;8.20;99.90
43015;DHT22;28637;50.554;7.032;2023-01-04T05:06:50;8.10;99.90
43015;DHT22;28637;50.554;7.032;2023-01-04T05:11:52;8.10;99.90
43015;DHT22;28637;50.554;7.032;2023-01-04T05:17:11;8.20;99.90
43015;DHT22;28637;50.554;7.032;2023-01-04T05:22:12;8.10;99.90
43015;DHT22;28637;50.554;7.032;2023-01-04T05:27:12;8.20;99.90
43015;DHT22;28637;50.554;7.032;2023-01-04T05:32:13;8.20;99.90
43015;DHT22;28637;50.554;7.032;2023-01-04T05:37:14;8.20;99.90
43015;DHT22;28637;50.554;7.032;2023-01-04T05:42:14;8.20;99.90
43015;DHT22;28637;50.554;7.032;2023-01-04T05:47:27;8.20;99.90
43015;DHT22;28637;50.554;7.032;2023-01-04T05:52:28;8.30;99.90
43015;DHT22;28637;50.554;7.032;2023-01-04T05:57:29;8.30;99.90
43015;DHT22;28637;50.554;7.032;2023-01-04T06:02:30;8.30;99.90
43015;DHT22;28637;50.554;7.032;2023-01-04T06:07:31;8.30;99.90
43015;DHT22;28637;50.554;7.032;2023-01-04T06:12:31;8.30;99.90
43015;DHT22;28637;50.554;7.032;2023-01-04T06:17:32;8.40;99.90
43015;DHT22;28637;50.554;7.032;2023-01-04T06:22:33;8.40;99.90
43015;DHT22;28637;50.554;7.032;2023-01-04T06:27:34;8.40;99.90
43015;DHT22;28637;50.554;7.032;2023-01-04T06:32:35;8.50;99.90
43015;DHT22;28637;50.554;7.032;2023-01-04T06:37:36;8.60;99.90
43015;DHT22;28637;50.554;7.032;2023-01-04T06:42:36;8.60;99.90
43015;DHT22;28637;50.554;7.032;2023-01-04T06:47:46;8.60;99.90
43015;DHT22;28637;50.554;7.032;2023-01-04T06:52:47;8.60;99.90
43015;DHT22;28637;50.554;7.032;2023-01-04T06:57:48;8.60;99.90
43015;DHT22;28637;50.554;7.032;2023-01-04T07:02:48;8.60;99.90
43015;DHT22;28637;50.554;7.032;2023-01-04T07:07:49;8.50;99.90
43015;DHT22;28637;50.554;7.032;2023-01-04T07:12:50;8.50;99.90
43015;DHT22;28637;50.554;7.032;2023-01-04T07:17:50;8.50;99.90
43015;DHT22;28637;50.554;7.032;2023-01-04T07:22:51;8.50;99.90
43015;DHT22;28637;50.554;7.032;2023-01-04T07:27:52;8.50;99.90
43015;DHT22;28637;50.554;7.032;2023-01-04T07:32:54;8.50;99.90
43015;DHT22;28637;50.554;7.032;2023-01-04T07:37:55;8.50;99.90
43015;DHT22;28637;50.554;7.032;2023-01-04T07:42:57;8.60;99.90
43015;DHT22;28637;50.554;7.032;2023-01-04T07:47:58;8.80;99.90
43015;DHT22;28637;50.554;7.032;2023-01-04T07:53:00;8.80;99.90
43015;DHT22;28637;50.554;7.032;2023-01-04T07:58:01;8.80;99.90
43015;DHT22;28637;50.554;7.032;2023-01-04T08:03:02;8.80;99.90
43015;DHT22;28637;50.554;7.032;2023-01-04T08:08:03;8.80;99.90
43015;DHT22;28637;50.554;7.032;2023-01-04T08:13:03;8.70;99.90
43015;DHT22;28637;50.554;7.032;2023-01-04T08:18:04;8.70;99.90
43015;DHT22;28637;50.554;7.032;2023-01-04T08:23:05;8.80;99.90
43015;DHT22;28637;50.554;7.032;2023-01-04T08:28:05;8.90;99.90
43015;DHT22;28637;50.554;7.032;2023-01-04T08:33:13;8.80;99.90
43015;DHT22;28637;50.554;7.032;2023-01-04T08:38:15;8.90;99.90
43015;DHT22;28637;50.554;7.032;2023-01-04T08:43:16;8.90;99.90
43015;DHT22;28637;50.554;7.032;2023-01-04T08:48:16;9.00;99.90
43015;DHT22;28637;50.554;7.032;2023-01-04T08:53:17;9.10;99.90
43015;DHT22;28637;50.554;7.032;2023-01-04T08:58:18;9.10;99.90
43015;DHT22;28637;50.554;7.032;2023-01-04T09:03:19;9.20;99.90
43015;DHT22;28637;50.554;7.032;2023-01-04T09:08:19;9.40;99.90
43015;DHT22;28637;50.554;7.032;2023-01-04T09:13:20;9.50;99.90
43015;DHT22;28637;50.554;7.032;2023-01-04T09:18:21;9.60;99.90
43015;DHT22;28637;50.554;7.032;2023-01-04T09:23:22;9.60;99.90
43015;DHT22;28637;50.554;7.032;2023-01-04T09:28:23;9.60;99.90
43015;DHT22;28637;50.554;7.032;2023-01-04T09:33:24;9.70;99.90
43015;DHT22;28637;50.554;7.032;2023-01-04T09:38:24;9.70;99.90
43015;DHT22;28637;50.554;7.032;2023-01-04T09:43:28;9.80;99.90
43015;DHT22;28637;50.554;7.032;2023-01-04T09:48:34;9.80;99.90
43015;DHT22;28637;50.554;7.032;2023-01-04T09:53:42;9.90;99.90
43015;DHT22;28637;50.554;7.032;2023-01-04T09:58:43;10.00;99.90
43015;DHT22;28637;50.554;7.032;2023-01-04T10:04:04;10.10;99.90
43015;DHT22;28637;50.554;7.032;2023-01-04T10:09:11;10.20;99.90
43015;DHT22;28637;50.554;7.032;2023-01-04T10:35:43;10.40;99.90
43015;DHT22;28637;50.554;7.032;2023-01-04T10:40:46;10.60;99.90
43015;DHT22;28637;50.554;7.032;2023-01-04T10:46:05;10.80;99.90
43015;DHT22;28637;50.554;7.032;2023-01-04T10:51:07;10.80;99.90
43015;DHT22;28637;50.554;7.032;2023-01-04T10:56:24;10.90;99.90
43015;DHT22;28637;50.554;7.032;2023-01-04T11:01:38;10.80;99.90
43015;DHT22;28637;50.554;7.032;2023-01-04T11:06:54;10.80;99.90
43015;DHT22;28637;50.554;7.032;2023-01-04T11:11:56;10.80;99.90
43015;DHT22;28637;50.554;7.032;2023-01-04T11:17:00;10.70;99.90
43015;DHT22;28637;50.554;7.032;2023-01-04T11:22:16;10.70;99.90
43015;DHT22;28637;50.554;7.032;2023-01-04T11:27:23;10.70;99.90
43015;DHT22;28637;50.554;7.032;2023-01-04T11:32:40;10.60;99.90
43015;DHT22;28637;50.554;7.032;2023-01-04T11:37:42;10.50;99.90
43015;DHT22;28637;50.554;7.032;2023-01-04T11:42:43;10.60;99.90
43015;DHT22;28637;50.554;7.032;2023-01-04T11:47:50;10.60;99.90
43015;DHT22;28637;50.554;7.032;2023-01-04T11:52:51;10.60;99.90
43015;DHT22;28637;50.554;7.032;2023-01-04T11:58:05;10.60;99.90
43015;DHT22;28637;50.554;7.032;2023-01-04T12:03:15;10.70;99.90
43015;DHT22;28637;50.554;7.032;2023-01-04T12:08:36;10.70;99.90
43015;DHT22;28637;50.554;7.032;2023-01-04T12:13:37;10.80;99.90
43015;DHT22;28637;50.554;7.032;2023-01-04T12:18:41;10.80;99.90
43015;DHT22;28637;50.554;7.032;2023-01-04T12:23:43;10.90;99.90
43015;DHT22;28637;50.554;7.032;2023-01-04T12:28:46;10.90;99.90
43015;DHT22;28637;50.554;7.032;2023-01-04T12:33:51;10.90;99.90
43015;DHT22;28637;50.554;7.032;2023-01-04T12:43:54;11.00;99.90
43015;DHT22;28637;50.554;7.032;2023-01-04T12:48:55;10.90;99.90
43015;DHT22;28637;50.554;7.032;2023-01-04T12:54:22;10.90;99.90
43015;DHT22;28637;50.554;7.032;2023-01-04T13:05:00;11.00;99.90
43015;DHT22;28637;50.554;7.032;2023-01-04T13:20:36;11.00;99.90
43015;DHT22;28637;50.554;7.032;2023-01-04T13:25:37;11.00;99.90
43015;DHT22;28637;50.554;7.032;2023-01-04T13:30:38;11.00;99.90
43015;DHT22;28637;50.554;7.032;2023-01-04T13:35:39;11.00;99.90
43015;DHT22;28637;50.554;7.032;2023-01-04T13:40:44;10.90;99.90
43015;DHT22;28637;50.554;7.032;2023-01-04T13:46:06;10.90;99.90
43015;DHT22;28637;50.554;7.032;2023-01-04T13:51:15;10.90;99.90
43015;DHT22;28637;50.554;7.032;2023-01-04T13:56:20;11.00;99.90
43015;DHT22;28637;50.554;7.032;2023-01-04T14:01:22;11.00;99.90
43015;DHT22;28637;50.554;7.032;2023-01-04T14:27:32;11.10;99.90
43015;DHT22;28637;50.554;7.032;2023-01-04T14:32:33;11.10;99.90
43015;DHT22;28637;50.554;7.032;2023-01-04T14:37:35;11.00;99.90
43015;DHT22;28637;50.554;7.032;2023-01-04T14:42:36;11.00;99.90
43015;DHT22;28637;50.554;7.032;2023-01-04T14:47:37;11.10;99.90
43015;DHT22;28637;50.554;7.032;2023-01-04T14:52:37;11.00;99.90
43015;DHT22;28637;50.554;7.032;2023-01-04T14:57:38;11.00;99.90
43015;DHT22;28637;50.554;7.032;2023-01-04T15:02:42;11.00;99.90
43015;DHT22;28637;50.554;7.032;2023-01-04T15:07:48;11.10;99.90
43015;DHT22;28637;50.554;7.032;2023-01-04T15:12:49;11.00;99.90
43015;DHT22;28637;50.554;7.032;2023-01-04T15:17:50;11.00;99.90
43015;DHT22;28637;50.554;7.032;2023-01-04T15:22:52;11.00;99.90
43015;DHT22;28637;50.554;7.032;2023-01-04T15:27:52;11.00;99.90
43015;DHT22;28637;50.554;7.032;2023-01-04T15:32:53;11.00;99.90
43015;DHT22;28637;50.554;7.032;2023-01-04T15:37:53;11.00;99.90
43015;DHT22;28637;50.554;7.032;2023-01-04T15:42:54;11.10;99.90
43015;DHT22;28637;50.554;7.032;2023-01-04T15:47:58;11.10;99.90
43015;DHT22;28637;50.554;7.032;2023-01-04T15:53:02;11.10;99.90
43015;DHT22;28637;50.554;7.032;2023-01-04T15:58:04;11.10;99.90
43015;DHT22;28637;50.554;7.032;2023-01-04T16:03:05;11.10;99.90
43015;DHT22;28637;50.554;7.032;2023-01-04T16:08:05;11.10;99.90
43015;DHT22;28637;50.554;7.032;2023-01-04T16:13:06;11.20;99.90
43015;DHT22;28637;50.554;7.032;2023-01-04T16:18:07;11.20;99.90
43015;DHT22;28637;50.554;7.032;2023-01-04T16:23:08;11.20;99.90
43015;DHT22;28637;50.554;7.032;2023-01-04T16:28:08;11.20;99.90
43015;DHT22;28637;50.554;7.032;2023-01-04T16:33:09;11.20;99.90
43015;DHT22;28637;50.554;7.032;2023-01-04T16:38:10;11.20;99.90
43015;DHT22;28637;50.554;7.032;2023-01-04T16:43:10;11.20;99.90
43015;DHT22;28637;50.554;7.032;2023-01-04T16:48:11;11.20;99.90
43015;DHT22;28637;50.554;7.032;2023-01-04T16:53:12;11.10;99.90
43015;DHT22;28637;50.554;7.032;2023-01-04T16:58:12;11.10;99.90
43015;DHT22;28637;50.554;7.032;2023-01-04T17:03:13;11.10;99.90
43015;DHT22;28637;50.554;7.032;2023-01-04T17:08:14;11.20;99.90
43015;DHT22;28637;50.554;7.032;2023-01-04T17:13:14;11.20;99.90
43015;DHT22;28637;50.554;7.032;2023-01-04T17:18:15;11.20;99.90
43015;DHT22;28637;50.554;7.032;2023-01-04T17:23:22;11.30;99.90
43015;DHT22;28637;50.554;7.032;2023-01-04T17:28:25;11.40;99.90
43015;DHT22;28637;50.554;7.032;2023-01-04T17:33:26;11.50;99.90
43015;DHT22;28637;50.554;7.032;2023-01-04T17:38:26;11.60;99.90
43015;DHT22;28637;50.554;7.032;2023-01-04T17:43:27;11.80;99.90
43015;DHT22;28637;50.554;7.032;2023-01-04T17:48:28;11.90;99.90
43015;DHT22;28637;50.554;7.032;2023-01-04T17:53:28;12.10;99.90
43015;DHT22;28637;50.554;7.032;2023-01-04T17:58:29;12.20;99.90
43015;DHT22;28637;50.554;7.032;2023-01-04T18:03:30;12.30;99.90
43015;DHT22;28637;50.554;7.032;2023-01-04T18:08:30;12.40;99.90
43015;DHT22;28637;50.554;7.032;2023-01-04T18:13:33;12.40;99.90
43015;DHT22;28637;50.554;7.032;2023-01-04T18:18:34;12.40;99.90
43015;DHT22;28637;50.554;7.032;2023-01-04T18:23:35;12.40;99.90
43015;DHT22;28637;50.554;7.032;2023-01-04T18:28:36;12.40;99.90
43015;DHT22;28637;50.554;7.032;2023-01-04T18:33:36;12.30;99.90
43015;DHT22;28637;50.554;7.032;2023-01-04T18:38:38;12.30;99.90
43015;DHT22;28637;50.554;7.032;2023-01-04T18:43:39;12.30;99.90
43015;DHT22;28637;50.554;7.032;2023-01-04T18:48:40;12.30;99.90
43015;DHT22;28637;50.554;7.032;2023-01-04T18:53:41;12.20;99.90
43015;DHT22;28637;50.554;7.032;2023-01-04T18:58:41;12.20;99.90
43015;DHT22;28637;50.554;7.032;2023-01-04T19:03:44;12.00;99.90
43015;DHT22;28637;50.554;7.032;2023-01-04T19:08:46;12.00;99.90
43015;DHT22;28637;50.554;7.032;2023-01-04T19:13:46;12.10;99.90
43015;DHT22;28637;50.554;7.032;2023-01-04T19:18:48;12.10;99.90
43015;DHT22;28637;50.554;7.032;2023-01-04T19:23:49;12.10;99.90
43015;DHT22;28637;50.554;7.032;2023-01-04T19:28:50;12.20;99.90
43015;DHT22;28637;50.554;7.032;2023-01-04T19:33:51;12.30;99.90
43015;DHT22;28637;50.554;7.032;2023-01-04T19:38:56;12.30;99.90
43015;DHT22;28637;50.554;7.032;2023-01-04T19:43:56;12.30;99.90
43015;DHT22;28637;50.554;7.032;2023-01-04T19:48:59;12.30;99.90
43015;DHT22;28637;50.554;7.032;2023-01-04T19:53:59;12.30;99.90
43015;DHT22;28637;50.554;7.032;2023-01-04T19:59:00;12.30;99.90
43015;DHT22;28637;50.554;7.032;2023-01-04T20:04:01;12.30;99.90
43015;DHT22;28637;50.554;7.032;2023-01-04T20:09:02;12.30;99.90
43015;DHT22;28637;50.554;7.032;2023-01-04T20:14:02;12.40;99.90
43015;DHT22;28637;50.554;7.032;2023-01-04T20:19:03;12.30;99.90
43015;DHT22;28637;50.554;7.032;2023-01-04T20:24:04;12.40;99.90
43015;DHT22;28637;50.554;7.032;2023-01-04T20:29:05;12.80;99.90
43015;DHT22;28637;50.554;7.032;2023-01-04T20:34:05;12.80;99.90
43015;DHT22;28637;50.554;7.032;2023-01-04T20:39:06;12.80;99.90
43015;DHT22;28637;50.554;7.032;2023-01-04T20:44:07;12.70;99.90
43015;DHT22;28637;50.554;7.032;2023-01-04T20:49:07;12.70;99.90
43015;DHT22;28637;50.554;7.032;2023-01-04T20:54:08;12.60;99.90
43015;DHT22;28637;50.554;7.032;2023-01-04T20:59:09;12.60;99.90
43015;DHT22;28637;50.554;7.032;2023-01-04T21:04:09;12.70;99.90
43015;DHT22;28637;50.554;7.032;2023-01-04T21:09:10;12.70;99.90
43015;DHT22;28637;50.554;7.032;2023-01-04T21:14:11;12.60;99.90
43015;DHT22;28637;50.554;7.032;2023-01-04T21:19:12;12.50;99.90
43015;DHT22;28637;50.554;7.032;2023-01-04T21:24:13;12.30;99.90
43015;DHT22;28637;50.554;7.032;2023-01-04T21:29:13;12.20;99.90
43015;DHT22;28637;50.554;7.032;2023-01-04T21:34:14;12.10;99.90
43015;DHT22;28637;50.554;7.032;2023-01-04T21:39:15;12.10;99.90
43015;DHT22;28637;50.554;7.032;2023-01-04T21:44:15;12.20;99.90
43015;DHT22;28637;50.554;7.032;2023-01-04T21:49:17;12.30;99.90
43015;DHT22;28637;50.554;7.032;2023-01-04T21:54:18;12.40;99.90
43015;DHT22;28637;50.554;7.032;2023-01-04T21:59:19;12.40;99.90
43015;DHT22;28637;50.554;7.032;2023-01-04T22:04:19;12.40;99.90
43015;DHT22;28637;50.554;7.032;2023-01-04T22:09:20;12.50;99.90
43015;DHT22;28637;50.554;7.032;2023-01-04T22:14:21;12.60;99.90
43015;DHT22;28637;50.554;7.032;2023-01-04T22:19:22;12.60;99.90
43015;DHT22;28637;50.554;7.032;2023-01-04T22:24:22;12.60;99.90
43015;DHT22;28637;50.554;7.032;2023-01-04T22:29:24;12.60;99.90
43015;DHT22;28637;50.554;7.032;2023-01-04T22:34:25;12.60;99.90
43015;DHT22;28637;50.554;7.032;2023-01-04T22:39:27;12.60;99.90
43015;DHT22;28637;50.554;7.032;2023-01-04T22:44:28;12.60;99.90
43015;DHT22;28637;50.554;7.032;2023-01-04T22:49:28;12.60;99.90
43015;DHT22;28637;50.554;7.032;2023-01-04T22:54:29;12.60;99.90
43015;DHT22;28637;50.554;7.032;2023-01-04T22:59:32;12.60;99.90
43015;DHT22;28637;50.554;7.032;2023-01-04T23:04:33;12.50;99.90
43015;DHT22;28637;50.554;7.032;2023-01-04T23:09:33;12.50;99.90
43015;DHT22;28637;50.554;7.032;2023-01-04T23:14:34;12.50;99.90
43015;DHT22;28637;50.554;7.032;2023-01-04T23:19:35;12.50;99.90
43015;DHT22;28637;50.554;7.032;2023-01-04T23:24:36;12.50;99.90
43015;DHT22;28637;50.554;7.032;2023-01-04T23:29:38;12.40;99.90
43015;DHT22;28637;50.554;7.032;2023-01-04T23:34:39;12.30;99.90
43015;DHT22;28637;50.554;7.032;2023-01-04T23:39:40;12.20;99.90
43015;DHT22;28637;50.554;7.032;2023-01-04T23:44:40;12.10;99.90
43015;DHT22;28637;50.554;7.032;2023-01-04T23:49:41;12.10;99.90
43015;DHT22;28637;50.554;7.032;2023-01-04T23:54:42;12.10;99.90
43015;DHT22;28637;50.554;7.032;2023-01-04T23:59:43;12.00;99.90
